Time;durP1;ratioP1;P1;durP2;ratioP2;P2;SDS_P1;SDS_P2;PMS_P1;PMS_P2;Temp;Humidity;BMP_temperature;BMP_pressure;BME280_temperature;BME280_humidity;BME280_pressure;Samples;Min_cycle;Max_cycle;Signal;HPM_P1;HPM_P2
2021/10/08 00:01:31;;;;;;;9.63;5.03;;;9.50;99.90;;;;;;5135569;27;20504;-66
2021/10/08 00:03:57;;;;;;;;;;;9.50;99.90;;;;;;5134440;27;20433;-66
2021/10/08 00:06:23;;;;;;;7.35;4.93;;;9.40;99.90;;;;;;5135145;27;20001;-67
2021/10/08 00:08:49;;;;;;;5.50;4.80;;;9.40;99.90;;;;;;5137221;27;20023;-67
2021/10/08 00:11:15;;;;;;;5.43;4.82;;;9.40;99.90;;;;;;5136978;27;20076;-67
2021/10/08 00:13:42;;;;;;;6.35;4.45;;;9.50;99.90;;;;;;5137748;27;20038;-67
2021/10/08 00:16:08;;;;;;;7.07;4.43;;;9.60;99.90;;;;;;5138018;27;20028;-67
2021/10/08 00:18:36;;;;;;;8.65;5.03;;;9.80;99.90;;;;;;5135130;27;20034;-68
2021/10/08 00:21:03;;;;;;;7.20;4.93;;;9.80;99.90;;;;;;5135322;27;20069;-67
2021/10/08 00:23:28;;;;;;;7.60;4.53;;;9.80;99.90;;;;;;5136533;27;20080;-68
2021/10/08 00:25:54;;;;;;;7.80;4.80;;;9.70;99.90;;;;;;5135814;27;20031;-67
2021/10/08 00:28:20;;;;;;;7.30;4.10;;;9.70;99.90;;;;;;5136182;27;20027;-67
2021/10/08 00:30:45;;;;;;;6.83;4.37;;;9.80;99.90;;;;;;5135750;27;20034;-67
2021/10/08 00:33:11;;;;;;;8.27;5.03;;;9.80;99.90;;;;;;5134884;27;20019;-67
2021/10/08 00:35:37;;;;;;;9.32;6.13;;;9.80;99.90;;;;;;5134745;27;20021;-67
2021/10/08 00:38:05;;;;;;;6.75;4.00;;;9.70;99.90;;;;;;5135282;27;20369;-68
2021/10/08 00:40:40;;;;;;;8.45;4.70;;;9.70;99.90;;;;;;5135468;27;20064;-67
2021/10/08 00:43:06;;;;;;;6.47;4.20;;;9.70;99.90;;;;;;5136988;27;20071;-67
2021/10/08 00:45:32;;;;;;;8.27;4.40;;;9.60;99.90;;;;;;5135943;27;20023;-67
2021/10/08 00:48:00;;;;;;;7.93;4.63;;;9.60;99.90;;;;;;5134802;27;20041;-67
2021/10/08 00:50:26;;;;;;;5.35;4.20;;;9.50;99.90;;;;;;5134944;27;20027;-67
2021/10/08 00:52:51;;;;;;;5.82;4.50;;;9.50;99.90;;;;;;5134482;27;20027;-67
2021/10/08 00:55:17;;;;;;;6.83;4.67;;;9.40;99.90;;;;;;5134802;27;20032;-67
2021/10/08 00:57:46;;;;;;;7.35;4.13;;;9.40;99.90;;;;;;5132923;27;20472;-68
2021/10/08 01:00:17;;;;;;;6.28;4.45;;;9.40;99.90;;;;;;5132946;27;20122;-67
2021/10/08 01:02:44;;;;;;;6.70;4.18;;;9.40;99.90;;;;;;5133117;27;20019;-67
2021/10/08 01:05:10;;;;;;;;;;;9.40;99.90;;;;;;5134935;27;20019;-67
2021/10/08 01:07:36;;;;;;;6.95;4.38;;;9.30;99.90;;;;;;5134078;27;20417;-67
2021/10/08 01:10:02;;;;;;;8.90;4.33;;;9.30;99.90;;;;;;5134266;27;20113;-67
2021/10/08 01:12:27;;;;;;;4.57;4.05;;;9.20;99.90;;;;;;5133911;27;20023;-67
2021/10/08 01:14:53;;;;;;;5.90;4.70;;;9.20;99.90;;;;;;5132484;27;20164;-67
2021/10/08 01:17:20;;;;;;;5.20;4.33;;;9.10;99.90;;;;;;5133809;27;20076;-67
2021/10/08 01:19:46;;;;;;;6.60;4.80;;;9.00;99.90;;;;;;5132391;27;20046;-67
2021/10/08 01:22:12;;;;;;;9.85;5.15;;;8.90;99.90;;;;;;5133823;27;20174;-67
2021/10/08 01:24:38;;;;;;;8.38;4.90;;;8.90;99.90;;;;;;5133959;28;20472;-67
2021/10/08 01:27:06;;;;;;;7.23;4.40;;;8.90;99.90;;;;;;5133879;28;20118;-68
2021/10/08 01:29:33;;;;;;;6.18;4.53;;;8.80;99.90;;;;;;5133947;28;20019;-68
2021/10/08 01:31:59;;;;;;;10.35;6.18;;;8.80;99.90;;;;;;5133858;28;20026;-67
2021/10/08 01:34:25;;;;;;;5.20;4.70;;;8.80;99.90;;;;;;5134158;28;20024;-68
2021/10/08 01:36:50;;;;;;;8.07;4.70;;;8.80;99.90;;;;;;5134600;27;20072;-66
2021/10/08 01:39:16;;;;;;;7.60;5.07;;;8.80;99.90;;;;;;5137499;27;20744;-68
2021/10/08 01:41:42;;;;;;;6.47;5.20;;;8.80;99.90;;;;;;5138508;27;20373;-67
2021/10/08 01:44:07;;;;;;;7.87;4.40;;;8.80;99.90;;;;;;5136716;27;20041;-67
2021/10/08 01:46:33;;;;;;;6.27;4.47;;;8.80;99.90;;;;;;5138163;27;20315;-68
2021/10/08 01:48:59;;;;;;;5.43;4.43;;;8.80;99.90;;;;;;5137792;27;20027;-67
2021/10/08 01:51:25;;;;;;;6.43;4.10;;;8.80;99.90;;;;;;5137568;27;20023;-67
2021/10/08 01:53:51;;;;;;;6.10;4.47;;;8.70;99.90;;;;;;5137690;27;20027;-67
2021/10/08 01:56:16;;;;;;;5.43;4.50;;;8.70;99.90;;;;;;5137986;27;20027;-68
2021/10/08 01:58:42;;;;;;;8.83;5.00;;;8.60;99.90;;;;;;5136431;27;20023;-68
2021/10/08 02:01:08;;;;;;;7.73;4.60;;;8.60;99.90;;;;;;5138620;27;20023;-69
2021/10/08 02:03:34;;;;;;;6.25;4.60;;;8.60;99.90;;;;;;5137764;27;20048;-70
2021/10/08 02:06:00;;;;;;;7.90;4.77;;;8.60;99.90;;;;;;5136593;27;20035;-70
2021/10/08 02:08:26;;;;;;;6.20;4.63;;;8.60;99.90;;;;;;5137497;27;20265;-70
2021/10/08 02:10:52;;;;;;;9.15;5.07;;;8.50;99.90;;;;;;5136211;27;20073;-69
2021/10/08 02:13:20;;;;;;;7.30;4.75;;;8.50;99.90;;;;;;5136383;27;20016;-70
2021/10/08 02:15:46;;;;;;;7.30;4.57;;;8.50;99.90;;;;;;5137687;27;20026;-69
2021/10/08 02:18:12;;;;;;;10.77;5.30;;;8.50;99.90;;;;;;5137640;27;20016;-69
2021/10/08 02:20:39;;;;;;;8.15;5.00;;;8.50;99.90;;;;;;5136228;27;20135;-70
2021/10/08 02:23:05;;;;;;;7.28;5.20;;;8.40;99.90;;;;;;5137252;27;20034;-69
2021/10/08 02:25:31;;;;;;;10.05;5.60;;;8.40;99.90;;;;;;5135902;27;20043;-69
2021/10/08 02:27:56;;;;;;;10.93;5.87;;;8.40;99.90;;;;;;5136077;27;20039;-69
2021/10/08 02:30:22;;;;;;;7.93;6.20;;;8.40;99.90;;;;;;5136902;27;20304;-68
2021/10/08 02:32:48;;;;;;;10.97;6.47;;;8.40;99.90;;;;;;5137164;27;20027;-68
2021/10/08 02:35:13;;;;;;;11.43;7.33;;;8.40;99.90;;;;;;5137165;27;20019;-68
2021/10/08 02:37:39;;;;;;;9.32;6.53;;;8.50;99.90;;;;;;5137014;27;20099;-68
2021/10/08 02:40:06;;;;;;;11.98;6.82;;;8.50;99.90;;;;;;5136783;27;20564;-68
2021/10/08 02:42:33;;;;;;;10.52;6.90;;;8.50;99.90;;;;;;5138101;27;20070;-68
2021/10/08 02:44:58;;;;;;;9.98;6.45;;;8.50;99.90;;;;;;5137849;27;20395;-69
2021/10/08 02:47:24;;;;;;;12.13;7.32;;;8.50;99.90;;;;;;5136899;27;20019;-69
2021/10/08 02:49:50;;;;;;;14.93;8.10;;;8.50;99.90;;;;;;5134776;27;20019;-69
2021/10/08 02:52:15;;;;;;;11.20;7.23;;;8.50;99.90;;;;;;5136705;27;20031;-69
2021/10/08 02:54:41;;;;;;;10.07;7.53;;;8.60;99.90;;;;;;5135362;27;20027;-69
2021/10/08 02:57:06;;;;;;;11.60;7.97;;;8.60;99.90;;;;;;5136784;27;20026;-69
2021/10/08 02:59:32;;;;;;;13.07;8.30;;;8.60;99.90;;;;;;5135223;27;20065;-69
2021/10/08 03:01:58;;;;;;;13.70;8.20;;;8.60;99.90;;;;;;5136540;27;20441;-69
2021/10/08 03:04:23;;;;;;;12.37;7.93;;;8.60;99.90;;;;;;5135132;27;20027;-69
2021/10/08 03:06:49;;;;;;;15.00;7.47;;;8.60;99.90;;;;;;5135203;27;20034;-69
2021/10/08 03:09:14;;;;;;;11.90;7.73;;;8.60;99.90;;;;;;5136500;27;20051;-69
2021/10/08 03:11:40;;;;;;;8.95;6.82;;;8.60;99.90;;;;;;5136020;27;20031;-69
2021/10/08 03:14:06;;;;;;;11.68;7.10;;;8.50;99.90;;;;;;5136690;27;20027;-69
2021/10/08 03:16:32;;;;;;;10.80;6.17;;;8.50;99.90;;;;;;5136615;27;20020;-68
2021/10/08 03:18:57;;;;;;;9.13;6.03;;;8.40;99.90;;;;;;5136065;27;20025;-69
2021/10/08 03:21:23;;;;;;;7.27;5.50;;;8.40;99.90;;;;;;5136162;27;20031;-71
2021/10/08 03:23:48;;;;;;;8.37;5.67;;;8.30;99.90;;;;;;5136120;27;20025;-68
2021/10/08 03:26:14;;;;;;;10.57;5.93;;;8.30;99.90;;;;;;5137267;27;20398;-68
2021/10/08 03:28:40;;;;;;;10.30;5.67;;;8.20;99.90;;;;;;5137059;27;20019;-68
2021/10/08 03:31:05;;;;;;;7.37;5.07;;;8.20;99.90;;;;;;5136441;27;20020;-68
2021/10/08 03:33:31;;;;;;;10.80;5.00;;;8.20;99.90;;;;;;5134593;27;20472;-68
2021/10/08 03:35:57;;;;;;;5.97;4.63;;;8.20;99.90;;;;;;5135776;27;20036;-69
2021/10/08 03:38:23;;;;;;;6.73;4.80;;;8.20;99.90;;;;;;5136080;27;20023;-68
2021/10/08 03:41:06;;;;;;;7.17;4.97;;;8.20;99.90;;;;;;5135994;27;20031;-68
2021/10/08 03:43:32;;;;;;;8.30;5.22;;;8.20;99.90;;;;;;5135601;27;20110;-68
2021/10/08 03:46:04;;;;;;;8.32;4.43;;;8.30;99.90;;;;;;5135602;27;20072;-68
2021/10/08 03:48:47;;;;;;;4.70;4.00;;;8.30;99.90;;;;;;5134123;27;20027;-68
2021/10/08 03:51:13;;;;;;;6.10;4.43;;;8.30;99.90;;;;;;5135610;27;20055;-68
2021/10/08 03:53:39;;;;;;;5.27;4.13;;;8.30;99.90;;;;;;5135394;27;20042;-68
2021/10/08 03:56:04;;;;;;;5.63;4.20;;;8.30;99.90;;;;;;5133834;27;20118;-68
2021/10/08 03:58:30;;;;;;;5.13;4.10;;;8.40;99.90;;;;;;5135443;27;20529;-68
2021/10/08 04:00:56;;;;;;;6.07;4.47;;;8.40;99.90;;;;;;5134641;27;20031;-68
2021/10/08 04:03:21;;;;;;;6.10;4.20;;;8.40;99.90;;;;;;5136998;27;20022;-68
2021/10/08 04:05:47;;;;;;;6.23;4.27;;;8.40;99.90;;;;;;5134437;27;20024;-68
2021/10/08 04:08:13;;;;;;;7.72;4.47;;;8.40;99.90;;;;;;5135476;27;20107;-68
2021/10/08 04:10:38;;;;;;;5.40;4.57;;;8.40;99.90;;;;;;5135715;27;20019;-69
2021/10/08 04:13:04;;;;;;;7.40;4.33;;;8.50;99.90;;;;;;5134521;27;20099;-68
2021/10/08 04:15:29;;;;;;;5.90;4.83;;;8.50;99.90;;;;;;5134398;27;20520;-68
2021/10/08 04:17:55;;;;;;;6.17;4.60;;;8.50;99.90;;;;;;5135522;27;20026;-68
2021/10/08 04:20:21;;;;;;;9.03;4.37;;;8.50;99.90;;;;;;5135423;27;20027;-68
2021/10/08 04:22:46;;;;;;;8.13;5.07;;;8.50;99.90;;;;;;5135928;27;20027;-68
2021/10/08 04:25:12;;;;;;;7.53;4.30;;;8.40;99.90;;;;;;5136285;27;20173;-68
2021/10/08 04:27:37;;;;;;;7.63;4.80;;;8.40;99.90;;;;;;5134162;27;20031;-68
2021/10/08 04:30:04;;;;;;;6.10;4.30;;;8.40;99.90;;;;;;5134852;27;20027;-69
2021/10/08 04:32:29;;;;;;;6.47;4.65;;;8.40;99.90;;;;;;5134916;27;20026;-68
2021/10/08 04:34:55;;;;;;;6.83;4.73;;;8.30;99.90;;;;;;5135144;27;20027;-71
2021/10/08 04:37:20;;;;;;;6.30;3.97;;;8.30;99.90;;;;;;5135097;27;20015;-69
2021/10/08 04:39:46;;;;;;;7.73;5.50;;;8.30;99.90;;;;;;5133296;27;20487;-69
2021/10/08 04:42:12;;;;;;;6.60;4.50;;;8.30;99.90;;;;;;5133407;27;20031;-68
2021/10/08 04:44:37;;;;;;;6.97;4.23;;;8.30;99.90;;;;;;5134871;27;20030;-68
2021/10/08 04:47:04;;;;;;;9.77;5.15;;;8.30;99.90;;;;;;5134443;27;20429;-68
2021/10/08 04:49:30;;;;;;;5.88;4.25;;;8.30;99.90;;;;;;5134534;27;20384;-68
2021/10/08 04:51:56;;;;;;;7.23;4.63;;;8.30;99.90;;;;;;5133444;27;20031;-68
2021/10/08 04:54:21;;;;;;;10.13;4.87;;;8.30;99.90;;;;;;5134925;27;20072;-70
2021/10/08 04:56:47;;;;;;;8.47;4.87;;;8.20;99.90;;;;;;5134318;27;20015;-70
2021/10/08 04:59:13;;;;;;;6.63;4.10;;;8.20;99.90;;;;;;5133342;27;20057;-69
2021/10/08 05:01:41;;;;;;;19.93;5.90;;;8.10;99.90;;;;;;5134702;27;20039;-72
2021/10/08 05:04:07;;;;;;;6.43;5.13;;;8.10;99.90;;;;;;5133604;27;20484;-72
2021/10/08 05:06:33;;;;;;;6.97;5.70;;;8.10;99.90;;;;;;5134324;27;20031;-73
2021/10/08 05:08:58;;;;;;;9.07;4.90;;;8.00;99.90;;;;;;5136578;27;20034;-72
2021/10/08 05:11:24;;;;;;;9.13;5.50;;;8.00;99.90;;;;;;5136190;27;20464;-69
2021/10/08 05:13:50;;;;;;;11.67;5.33;;;8.00;99.90;;;;;;5135039;27;20048;-70
2021/10/08 05:16:15;;;;;;;5.70;4.83;;;8.00;99.90;;;;;;5135076;27;20340;-70
2021/10/08 05:18:41;;;;;;;7.03;4.93;;;8.10;99.90;;;;;;5134862;27;20024;-69
2021/10/08 05:21:07;;;;;;;6.60;5.27;;;8.10;99.90;;;;;;5135363;27;20507;-75
2021/10/08 05:23:34;;;;;;;7.63;5.37;;;8.10;99.90;;;;;;5135661;27;20395;-73
2021/10/08 05:26:01;;;;;;;8.70;6.28;;;8.10;99.90;;;;;;5134434;27;20031;-73
2021/10/08 05:28:27;;;;;;;10.73;6.30;;;8.10;99.90;;;;;;5137422;28;20023;-72
2021/10/08 05:30:53;;;;;;;9.98;6.57;;;8.10;99.90;;;;;;5135921;28;20030;-68
2021/10/08 05:33:20;;;;;;;11.02;6.90;;;8.10;99.90;;;;;;5136416;28;20023;-71
2021/10/08 05:35:45;;;;;;;8.70;5.90;;;8.10;99.90;;;;;;5135428;28;20027;-71
2021/10/08 05:38:11;;;;;;;9.13;6.20;;;8.20;99.90;;;;;;5134851;28;20306;-71
2021/10/08 05:40:37;;;;;;;13.87;7.37;;;8.10;99.90;;;;;;5135102;28;20023;-71
2021/10/08 05:43:03;;;;;;;9.73;6.97;;;8.10;99.90;;;;;;5134927;28;20106;-72
2021/10/08 05:45:30;;;;;;;11.85;7.13;;;8.10;99.90;;;;;;5134430;28;20038;-71
2021/10/08 05:47:56;;;;;;;9.57;6.65;;;8.10;99.90;;;;;;5134262;28;20429;-70
2021/10/08 05:50:22;;;;;;;14.97;7.00;;;8.10;99.90;;;;;;5134696;28;20052;-71
2021/10/08 05:52:48;;;;;;;9.63;6.63;;;8.10;99.90;;;;;;5134738;28;20080;-71
2021/10/08 05:55:13;;;;;;;10.40;6.80;;;8.20;99.90;;;;;;5133677;28;20035;-71
2021/10/08 05:57:39;;;;;;;8.63;6.90;;;8.20;99.90;;;;;;5133691;28;20016;-71
2021/10/08 06:00:06;;;;;;;12.30;6.60;;;8.20;99.90;;;;;;5133604;28;20059;-72
2021/10/08 06:02:31;;;;;;;;;;;8.20;99.90;;;;;;5134953;28;20031;-74
2021/10/08 06:04:57;;;;;;;11.80;6.88;;;8.30;99.90;;;;;;5134940;27;19947;-68
2021/10/08 06:07:23;;;;;;;11.53;7.17;;;8.40;99.90;;;;;;5134742;28;20062;-71
2021/10/08 06:09:48;;;;;;;10.33;6.60;;;8.40;99.90;;;;;;5132427;28;20027;-72
2021/10/08 06:12:14;;;;;;;11.53;7.40;;;8.40;99.90;;;;;;5134116;28;20035;-70
2021/10/08 06:14:40;;;;;;;12.88;8.05;;;8.40;99.90;;;;;;5134519;28;20024;-72
2021/10/08 06:17:06;;;;;;;12.63;7.88;;;8.40;99.90;;;;;;5138981;28;20023;-73
2021/10/08 06:19:32;;;;;;;13.90;7.60;;;8.40;99.90;;;;;;5141164;28;20055;-73
2021/10/08 06:21:57;;;;;;;9.83;7.33;;;8.40;99.90;;;;;;5134485;28;20038;-69
2021/10/08 06:24:23;;;;;;;18.07;8.20;;;8.40;99.90;;;;;;5137402;27;20077;-69
2021/10/08 06:26:49;;;;;;;10.77;7.38;;;8.50;99.90;;;;;;5138521;27;20367;-69
2021/10/08 06:29:15;;;;;;;9.83;6.73;;;8.60;99.90;;;;;;5137855;27;20484;-69
2021/10/08 06:31:40;;;;;;;11.30;7.20;;;8.60;99.90;;;;;;5137430;27;20035;-69
2021/10/08 06:34:06;;;;;;;11.63;6.53;;;8.70;99.90;;;;;;5135971;27;20407;-69
2021/10/08 06:36:32;;;;;;;19.17;7.57;;;8.70;99.90;;;;;;5138506;27;20023;-69
2021/10/08 06:38:57;;;;;;;13.93;6.97;;;8.70;99.90;;;;;;5135723;27;20019;-69
2021/10/08 06:41:23;;;;;;;14.03;7.43;;;8.70;99.90;;;;;;5135720;27;20027;-69
2021/10/08 06:43:49;;;;;;;10.13;6.80;;;8.80;99.90;;;;;;5137547;27;20023;-67
2021/10/08 06:46:14;;;;;;;12.43;8.90;;;8.80;99.90;;;;;;5137000;27;20092;-72
2021/10/08 06:48:40;;;;;;;10.13;7.00;;;8.80;99.90;;;;;;5136858;27;20388;-71
2021/10/08 06:51:06;;;;;;;9.57;7.17;;;8.90;99.90;;;;;;5136817;27;20414;-70
2021/10/08 06:53:31;;;;;;;11.20;6.50;;;8.90;99.90;;;;;;5135240;27;20378;-70
2021/10/08 06:55:58;;;;;;;13.25;7.10;;;8.90;99.90;;;;;;5136212;27;20504;-70
2021/10/08 06:58:23;;;;;;;10.75;6.85;;;8.90;99.90;;;;;;5136234;27;20073;-69
2021/10/08 07:00:53;;;;;;;10.97;6.50;;;8.90;99.90;;;;;;5135173;27;20054;-72
2021/10/08 07:03:22;;;;;;;11.73;7.70;;;8.90;99.90;;;;;;5136341;27;20102;-70
2021/10/08 07:05:48;;;;;;;9.85;6.60;;;8.90;99.90;;;;;;5136160;27;20062;-71
2021/10/08 07:08:14;;;;;;;12.73;7.93;;;8.90;99.90;;;;;;5136043;27;20062;-69
2021/10/08 07:10:40;;;;;;;10.77;6.60;;;9.00;99.90;;;;;;5136048;27;20031;-70
2021/10/08 07:13:06;;;;;;;10.80;7.05;;;9.00;99.90;;;;;;5136504;27;20098;-71
2021/10/08 07:15:32;;;;;;;10.70;7.15;;;9.00;99.90;;;;;;5136415;27;20026;-71
2021/10/08 07:17:58;;;;;;;9.88;6.57;;;9.10;99.90;;;;;;5134860;27;20019;-71
2021/10/08 07:20:26;;;;;;;12.82;7.70;;;9.10;99.90;;;;;;5136122;27;20023;-70
2021/10/08 07:22:53;;;;;;;9.80;6.43;;;9.10;99.90;;;;;;5136153;27;20027;-73
2021/10/08 07:25:21;;;;;;;12.85;8.70;;;9.20;99.90;;;;;;5136448;27;20059;-71
2021/10/08 07:27:47;;;;;;;12.07;7.25;;;9.30;99.90;;;;;;5136042;27;20072;-70
2021/10/08 07:30:14;;;;;;;9.55;6.90;;;9.30;99.90;;;;;;5135541;27;20031;-67
2021/10/08 07:32:41;;;;;;;10.70;7.03;;;9.40;99.90;;;;;;5135650;27;20361;-71
2021/10/08 07:35:08;;;;;;;13.45;8.05;;;9.50;99.90;;;;;;5135607;27;20011;-71
2021/10/08 07:37:33;;;;;;;;;;;9.60;99.90;;;;;;5136359;27;20028;-72
2021/10/08 07:39:59;;;;;;;12.48;7.18;;;9.70;99.90;;;;;;5134640;27;20265;-70
2021/10/08 07:42:25;;;;;;;9.77;6.67;;;9.80;99.90;;;;;;5134496;27;20015;-70
2021/10/08 07:44:51;;;;;;;12.70;6.63;;;9.90;99.90;;;;;;5135534;27;20256;-72
2021/10/08 07:47:17;;;;;;;12.70;6.90;;;10.00;99.90;;;;;;5135646;27;20391;-70
2021/10/08 07:49:43;;;;;;;10.27;7.25;;;10.20;99.90;;;;;;5133941;27;20122;-71
2021/10/08 07:52:09;;;;;;;10.95;6.35;;;10.20;99.90;;;;;;5135473;27;20121;-74
2021/10/08 07:54:35;;;;;;;12.43;6.05;;;10.40;99.90;;;;;;5135454;27;20015;-70
2021/10/08 07:57:00;;;;;;;9.90;6.27;;;10.50;99.90;;;;;;5133878;27;20059;-69
2021/10/08 07:59:26;;;;;;;10.05;5.78;;;10.50;99.90;;;;;;5134783;27;20019;-69
2021/10/08 08:01:52;;;;;;;9.00;6.60;;;10.60;99.90;;;;;;5134092;27;20023;-69
2021/10/08 08:04:18;;;;;;;10.53;6.37;;;10.70;99.90;;;;;;5134769;27;20273;-69
2021/10/08 08:06:44;;;;;;;9.63;5.80;;;10.80;99.90;;;;;;5135088;27;20413;-69
2021/10/08 08:09:09;;;;;;;7.35;5.57;;;11.00;99.90;;;;;;5134749;27;20291;-73
2021/10/08 08:11:35;;;;;;;11.00;6.50;;;11.00;99.90;;;;;;5134764;27;20395;-72
2021/10/08 08:14:01;;;;;;;7.95;5.30;;;11.10;99.90;;;;;;5134800;27;20271;-71
2021/10/08 08:16:27;;;;;;;10.43;5.47;;;11.20;99.90;;;;;;5135034;27;20491;-70
2021/10/08 08:18:52;;;;;;;9.13;5.45;;;11.30;99.90;;;;;;5135746;27;20272;-72
2021/10/08 08:21:19;;;;;;;10.53;5.53;;;11.40;99.90;;;;;;5135359;27;20023;-72
2021/10/08 08:23:45;;;;;;;8.55;5.85;;;11.40;99.90;;;;;;5135467;27;20050;-72
2021/10/08 08:26:10;;;;;;;8.17;5.47;;;11.50;99.90;;;;;;5133192;27;20054;-70
2021/10/08 08:28:36;;;;;;;6.63;4.63;;;11.50;99.90;;;;;;5132693;27;20099;-70
2021/10/08 08:31:03;;;;;;;9.68;5.55;;;11.60;99.90;;;;;;5133700;27;20300;-69
2021/10/08 08:33:29;;;;;;;7.70;5.47;;;11.70;99.90;;;;;;5132979;27;20030;-69
2021/10/08 08:35:55;;;;;;;9.15;4.85;;;11.80;99.90;;;;;;5133325;27;20777;-68
2021/10/08 08:38:21;;;;;;;7.72;4.70;;;11.90;99.90;;;;;;5134426;27;20058;-71
2021/10/08 08:40:47;;;;;;;6.18;4.72;;;12.00;99.90;;;;;;5133112;27;20502;-71
2021/10/08 08:43:13;;;;;;;7.90;4.95;;;12.10;99.90;;;;;;5134434;27;20043;-71
2021/10/08 08:45:40;;;;;;;7.30;4.07;;;12.20;99.90;;;;;;5133956;27;20042;-70
2021/10/08 08:48:11;;;;;;;6.88;4.50;;;12.20;99.90;;;;;;5132860;27;20110;-69
2021/10/08 08:50:40;;;;;;;9.65;4.53;;;12.30;99.90;;;;;;5134517;27;20030;-72
2021/10/08 08:53:05;;;;;;;7.97;4.78;;;12.40;99.90;;;;;;5132953;27;20051;-70
2021/10/08 08:55:32;;;;;;;7.32;4.40;;;12.60;99.90;;;;;;5133887;27;20510;-70
2021/10/08 08:57:58;;;;;;;12.32;5.28;;;12.70;99.90;;;;;;5134104;27;20202;-71
2021/10/08 09:00:24;;;;;;;8.77;4.75;;;12.80;99.90;;;;;;5134345;27;20062;-74
2021/10/08 09:02:58;;;;;;;6.38;4.07;;;13.40;99.90;;;;;;5133197;27;20039;-73
2021/10/08 09:05:27;;;;;;;6.20;3.67;;;14.40;99.90;;;;;;5134168;27;20091;-71
2021/10/08 09:07:56;;;;;;;5.80;3.60;;;15.30;99.90;;;;;;5134615;27;20138;-71
2021/10/08 09:10:25;;;;;;;5.70;3.42;;;15.40;99.90;;;;;;5134144;27;20034;-71
2021/10/08 09:12:56;;;;;;;6.18;4.03;;;15.60;99.90;;;;;;5132651;27;20071;-67
2021/10/08 09:15:28;;;;;;;14.38;4.32;;;15.20;99.90;;;;;;5134313;27;20011;-68
2021/10/08 09:18:06;;;;;;;7.10;3.95;;;15.20;99.90;;;;;;5133774;27;20019;-67
2021/10/08 09:20:32;;;;;;;5.07;3.47;;;15.40;99.90;;;;;;5133654;27;20051;-67
2021/10/08 09:22:58;;;;;;;10.13;4.03;;;15.80;99.90;;;;;;5133664;27;20076;-68
2021/10/08 09:25:27;;;;;;;6.10;3.67;;;16.10;99.90;;;;;;5133697;27;20036;-65
2021/10/08 09:28:10;;;;;;;5.43;3.72;;;16.50;99.90;;;;;;5134170;27;20042;-69
2021/10/08 09:30:38;;;;;;;7.55;3.58;;;16.80;99.90;;;;;;5133965;28;20027;-69
2021/10/08 09:33:10;;;;;;;6.40;3.38;;;16.80;99.90;;;;;;5133803;28;20071;-74
2021/10/08 09:35:37;;;;;;;7.85;3.58;;;17.20;99.90;;;;;;5132640;28;20023;-71
2021/10/08 09:38:07;;;;;;;6.43;3.67;;;17.50;99.90;;;;;;5132500;28;20041;-69
2021/10/08 09:40:35;;;;;;;4.72;3.67;;;17.90;99.90;;;;;;5132736;28;20027;-69
2021/10/08 09:43:06;;;;;;;5.90;3.60;;;17.30;99.90;;;;;;5133621;28;20072;-69
2021/10/08 09:45:37;;;;;;;5.07;3.67;;;16.90;99.90;;;;;;5132632;28;20061;-70
2021/10/08 09:48:03;;;;;;;7.97;3.67;;;16.30;99.90;;;;;;5133549;27;20031;-69
2021/10/08 09:50:29;;;;;;;7.82;3.90;;;16.30;99.90;;;;;;5133357;28;20126;-72
2021/10/08 09:53:15;;;;;;;5.90;3.40;;;16.50;99.90;;;;;;5132043;28;20122;-68
2021/10/08 09:55:44;;;;;;;6.47;3.30;;;16.40;99.90;;;;;;5132213;28;20019;-68
2021/10/08 09:58:10;;;;;;;5.18;3.50;;;16.40;99.90;;;;;;5133871;27;20087;-71
2021/10/08 10:00:49;;;;;;;6.72;3.60;;;16.20;99.90;;;;;;5136459;27;20023;-69
2021/10/08 10:03:18;;;;;;;5.15;3.38;;;16.10;99.90;;;;;;5136601;27;20023;-70
2021/10/08 10:05:45;;;;;;;8.52;3.80;;;15.80;99.90;;;;;;5137613;27;20030;-69
2021/10/08 10:08:11;;;;;;;;;;;15.50;99.90;;;;;;5137858;27;20055;-68
2021/10/08 10:10:38;;;;;;;6.07;3.92;;;15.40;99.90;;;;;;5137521;27;19907;-69
2021/10/08 10:13:08;;;;;;;6.60;4.05;;;15.30;99.90;;;;;;5137433;27;20026;-68
2021/10/08 10:15:35;;;;;;;7.85;3.58;;;15.20;99.90;;;;;;5137482;27;20383;-68
2021/10/08 10:18:08;;;;;;;4.63;3.58;;;15.30;99.90;;;;;;5137221;27;20420;-68
2021/10/08 10:20:37;;;;;;;6.40;3.63;;;15.30;99.90;;;;;;5144191;27;20083;-71
2021/10/08 10:23:07;;;;;;;6.65;3.35;;;15.30;99.90;;;;;;5144934;27;20173;-72
2021/10/08 10:25:35;;;;;;;7.45;3.65;;;15.30;99.90;;;;;;5144572;27;20046;-71
2021/10/08 10:28:03;;;;;;;5.22;3.10;;;15.30;99.90;;;;;;5139654;27;20102;-71
2021/10/08 10:30:29;;;;;;;6.30;3.70;;;15.20;99.90;;;;;;5137607;27;20037;-72
2021/10/08 10:32:55;;;;;;;7.82;3.58;;;15.10;99.90;;;;;;5136211;27;20382;-72
2021/10/08 10:35:44;;;;;;;6.63;3.17;;;15.10;99.90;;;;;;5137339;27;20027;-69
2021/10/08 10:38:39;;;;;;;11.30;5.22;;;15.10;99.90;;;;;;5135910;27;20380;-70
2021/10/08 10:41:08;;;;;;;7.82;4.22;;;15.10;99.90;;;;;;5136315;27;20019;-71
2021/10/08 10:43:37;;;;;;;7.70;3.78;;;15.10;99.90;;;;;;5136918;27;20029;-69
2021/10/08 10:46:32;;;;;;;16.90;4.10;;;15.10;99.90;;;;;;5137883;27;20041;-68
2021/10/08 10:51:56;;;;;;;6.22;3.85;;;15.10;99.90;;;;;;5136807;27;20035;-68
2021/10/08 10:54:34;;;;;;;7.07;3.50;;;15.10;99.90;;;;;;5136674;27;20030;-70
2021/10/08 10:57:08;;;;;;;8.70;3.97;;;15.00;99.90;;;;;;5136123;27;20023;-74
2021/10/08 10:59:36;;;;;;;6.55;3.78;;;15.00;99.90;;;;;;5135325;27;20545;-70
2021/10/08 11:04:39;;;;;;;8.45;4.03;;;15.10;99.90;;;;;;5136533;27;20051;-70
2021/10/08 11:07:08;;;;;;;6.72;3.80;;;15.10;99.90;;;;;;5135444;27;20050;-70
2021/10/08 11:09:35;;;;;;;7.47;4.18;;;15.10;99.90;;;;;;5136122;27;20455;-72
2021/10/08 11:12:34;;;;;;;10.00;4.15;;;15.20;99.90;;;;;;5136082;27;20059;-72
2021/10/08 11:15:20;;;;;;;9.50;4.78;;;15.20;99.90;;;;;;5136143;27;20015;-71
2021/10/08 11:17:49;;;;;;;7.60;4.32;;;15.20;99.90;;;;;;5136299;27;20023;-66
2021/10/08 11:20:39;;;;;;;8.65;5.00;;;15.20;99.90;;;;;;5134311;27;20043;-67
2021/10/08 11:23:19;;;;;;;10.82;4.72;;;15.20;99.90;;;;;;5126834;27;20027;-67
2021/10/08 11:25:49;;;;;;;6.88;4.90;;;15.20;99.90;;;;;;5135791;27;20068;-67
2021/10/08 11:28:15;;;;;;;6.93;4.82;;;15.20;99.90;;;;;;5135676;27;20039;-68
2021/10/08 11:30:41;;;;;;;6.90;4.40;;;15.20;99.90;;;;;;5134147;27;20034;-67
2021/10/08 11:33:07;;;;;;;9.00;4.30;;;15.30;99.90;;;;;;5134244;27;20055;-67
2021/10/08 11:35:34;;;;;;;6.40;3.95;;;15.40;99.90;;;;;;5135755;27;20027;-68
2021/10/08 11:38:02;;;;;;;8.48;4.72;;;15.50;99.90;;;;;;5135547;27;20484;-67
2021/10/08 11:40:35;;;;;;;7.28;4.55;;;15.40;99.90;;;;;;5135447;27;20073;-68
2021/10/08 11:43:04;;;;;;;10.15;5.50;;;15.40;99.90;;;;;;5135505;27;20150;-67
2021/10/08 11:45:47;;;;;;;9.63;5.32;;;15.50;99.90;;;;;;5135460;27;20107;-68
2021/10/08 11:48:26;;;;;;;8.45;5.15;;;15.60;99.90;;;;;;5134671;27;20027;-70
2021/10/08 11:51:05;;;;;;;7.70;5.10;;;15.50;99.90;;;;;;5135915;27;20019;-67
2021/10/08 11:53:56;;;;;;;12.00;5.90;;;15.50;99.90;;;;;;5135658;27;20018;-67
2021/10/08 11:56:27;;;;;;;12.90;5.43;;;15.50;99.90;;;;;;5138887;27;20020;-68
2021/10/08 11:58:58;;;;;;;10.88;6.07;;;15.60;99.90;;;;;;5136955;27;20440;-67
2021/10/08 12:01:26;;;;;;;9.55;6.20;;;15.70;99.90;;;;;;5135803;27;20027;-72
2021/10/08 12:03:52;;;;;;;10.30;6.20;;;15.80;99.90;;;;;;5134878;27;20046;-67
2021/10/08 12:06:26;;;;;;;10.07;6.10;;;15.80;99.90;;;;;;5135210;27;20091;-65
2021/10/08 12:08:53;;;;;;;17.70;6.97;;;15.80;99.90;;;;;;5135351;27;20035;-68
2021/10/08 12:11:20;;;;;;;11.82;6.88;;;15.90;99.90;;;;;;5134226;27;20075;-67
2021/10/08 12:13:53;;;;;;;9.23;6.57;;;15.80;99.90;;;;;;5135218;27;20016;-69
2021/10/08 12:16:35;;;;;;;9.82;6.13;;;15.80;99.90;;;;;;5135675;27;20110;-68
2021/10/08 12:19:01;;;;;;;9.40;6.25;;;15.80;99.90;;;;;;5133776;27;20052;-68
2021/10/08 12:21:29;;;;;;;9.70;6.53;;;15.80;99.90;;;;;;5134071;27;20034;-69
2021/10/08 12:24:03;;;;;;;11.27;7.03;;;15.80;99.90;;;;;;5135145;27;20039;-70
2021/10/08 12:26:31;;;;;;;12.43;6.50;;;15.80;99.90;;;;;;5134978;27;20035;-71
2021/10/08 12:28:57;;;;;;;11.98;6.78;;;15.80;99.90;;;;;;5134726;27;20027;-67
2021/10/08 12:31:42;;;;;;;;;;;15.90;99.90;;;;;;5135523;27;20045;-72
2021/10/08 12:34:08;;;;;;;9.60;6.30;;;15.90;99.90;;;;;;5135013;27;20089;-69
2021/10/08 12:36:34;;;;;;;13.07;6.25;;;16.00;99.90;;;;;;5133327;27;20139;-67
2021/10/08 12:39:19;;;;;;;9.93;6.45;;;16.00;99.90;;;;;;5134356;27;20019;-67
2021/10/08 12:41:57;;;;;;;10.15;6.50;;;15.90;99.90;;;;;;5133506;27;20030;-67
2021/10/08 12:44:25;;;;;;;7.78;6.20;;;15.90;99.90;;;;;;5134487;27;20110;-68
2021/10/08 12:47:12;;;;;;;9.18;6.97;;;15.90;99.90;;;;;;5133298;27;20059;-67
2021/10/08 12:49:55;;;;;;;9.07;6.18;;;15.90;99.90;;;;;;5134704;27;20384;-66
2021/10/08 12:52:42;;;;;;;16.92;8.30;;;15.90;99.90;;;;;;5134356;27;20019;-66
2021/10/08 12:55:25;;;;;;;10.85;7.05;;;15.90;99.90;;;;;;5134202;27;20354;-66
2021/10/08 12:58:28;;;;;;;11.38;6.80;;;16.00;99.90;;;;;;5134165;27;20015;-66
2021/10/08 13:01:00;;;;;;;12.20;7.15;;;16.10;99.90;;;;;;5134594;27;20023;-66